Flight Track Log - Related Links

Times and Time Zones

All times are in EDT time to prevent confusion due to time zone crossing. See the SWA631 flight status page for this flight to view local times or setup timezone preferences in your user account.

Time Position Orientation Groundspeed Altitude Reporting Facility
EDT Latitude Longitude Course Direction KTS MPH feet Rate Location/Type
Sun 10:39:21 AM 39.8333 -104.6500 169° South 170 196 6,400  Level Denver TRACON
Sun 10:40:21 AM 39.7667 -104.6333 169° South 229 264 7,800 1,458 Climbing Denver TRACON
Sun 10:41:08 AM 39.7133 -104.6442 189° South 249 287 9,000 1,982 Climbing Denver Center
Sun 10:42:10 AM 39.6206 -104.6564 186° South 312 359 11,400 2,516 Climbing Denver Center
Sun 10:43:12 AM 39.5353 -104.6686 186° South 357 411 14,200 3,194 Climbing Denver Center
Sun 10:44:14 AM 39.4086 -104.6853 186° South 373 429 18,000 3,097 Climbing Denver Center
Sun 10:45:16 AM 39.3003 -104.7019 187° South 388 447 20,600 2,613 Climbing Denver Center
Sun 10:46:18 AM 39.1756 -104.7186 186° South 418 481 23,400 2,468 Climbing Denver Center
Sun 10:47:20 AM 39.0728 -104.7333 186° South 419 482 25,700 2,468 Climbing Denver Center
Sun 10:48:22 AM 38.9431 -104.7994 202° Southwest 415 478 28,500 2,371 Climbing Denver Center
Sun 10:49:24 AM 38.8381 -104.8636 205° Southwest 417 480 30,600 2,118 Climbing Denver Center
Sun 10:50:38 AM 38.7350 -104.9286 206° Southwest 415 478 33,300 1,927 Climbing Denver Center
Sun 10:51:41 AM 38.6192 -105.0089 208° Southwest 398 458 35,000 816 Climbing Denver Center
Sun 10:52:43 AM 38.5231 -105.0753 208° Southwest 394 453 35,000  Level Denver Center
Sun 10:53:45 AM 38.4256 -105.1431 209° Southwest 397 457 35,000  Level Denver Center
Sun 10:54:47 AM 38.3136 -105.2203 208° Southwest 398 458 35,000  Level Denver Center
Sun 10:56:01 AM 38.2197 -105.2833 208° Southwest 399 459 35,000  Level Denver Center
Sun 10:57:04 AM 38.0950 -105.3692 208° Southwest 401 461 35,000  Level Denver Center
Sun 10:58:06 AM 37.9853 -105.4436 208° Southwest 403 464 35,000  Level Denver Center
Sun 10:59:07 AM 37.9078 -105.4961 208° Southwest 399 459 35,000  Level Denver Center
Sun 11:00:10 AM 37.7833 -105.5806 208° Southwest 398 458 35,000  Level Denver Center
Sun 11:01:12 AM 37.6864 -105.6383 205° Southwest 401 461 35,000  Level Denver Center
Sun 11:02:14 AM 37.5681 -105.6944 201° Southwest 407 468 35,000  Level Denver Center
Sun 11:03:16 AM 37.4597 -105.7447 200° South 407 468 35,000  Level Denver Center
Sun 11:04:18 AM 37.3575 -105.7919 200° South 406 467 35,000  Level Denver Center
Sun 11:05:20 AM 37.2397 -105.8489 201° Southwest 406 467 35,000  Level Denver Center
Sun 11:06:22 AM 37.1372 -105.8961 200° South 408 470 35,000 -532 Level Denver Center
Sun 11:07:24 AM 37.0147 -105.9536 201° Southwest 418 481 33,900 -968 Descending Denver Center
Sun 11:08:26 AM 36.9169 -105.9975 200° South 421 484 33,000 -919 Descending Denver Center
Sun 11:09:28 AM 36.7953 -106.0547 201° Southwest 419 482 32,000 -484 Descending Denver Center
Sun 11:10:30 AM 36.6875 -106.1036 200° South 413 475 32,000  Level Denver Center
Sun 11:11:34 AM 36.5617 -106.1622 201° Southwest 420 483 32,000  Level Albuquerque Center
Sun 11:12:35 AM 36.4586 -106.2081 200° South 413 475 32,000  Level Albuquerque Center
Sun 11:13:37 AM 36.3553 -106.2553 200° South 412 474 32,000 -581 Level Albuquerque Center
Sun 11:14:39 AM 36.2339 -106.3069 199° South 412 474 30,800 -1,597 Descending Albuquerque Center
Sun 11:15:41 AM 36.1314 -106.3550 201° Southwest 400 460 28,700 -2,098 Descending Albuquerque Center
Sun 11:16:42 AM 36.0294 -106.3981 199° South 390 449 26,500 -2,146 Descending Albuquerque Center
Sun 11:17:44 AM 35.9308 -106.4397 199° South 379 436 24,300 -2,274 Descending Albuquerque Center
Sun 11:18:46 AM 35.8178 -106.4867 199° South 374 430 21,800 -2,177 Descending Albuquerque Center
Sun 11:19:48 AM 35.7261 -106.5244 198° South 367 422 19,800 -2,094 Descending Albuquerque Center
Sun 11:20:32 AM 35.6494 -106.5547 198° South 358 412 18,100 -1,869 Descending Albuquerque Center
Sun 11:20:49 AM 35.6419 -106.5578 198° South 360 414 17,900 -1,975 Descending Albuquerque Center
Sun 11:21:51 AM 35.5325 -106.6089 201° Southwest 352 405 15,500 -1,791 Descending Albuquerque Center
Sun 11:23:03 AM 35.4336 -106.6628 204° Southwest 323 372 13,900 -1,489 Descending Albuquerque Center
Sun 11:24:04 AM 35.3475 -106.7086 203° Southwest 313 360 12,200 -1,646 Descending Albuquerque Center
Sun 11:24:56 AM 35.2886 -106.7414 204° Southwest 314 361 10,800 -1,263 Descending Albuquerque Center
Sun 11:25:58 AM 35.2131 -106.7875 207° Southwest 308 354 9,800 -1,210 Descending Albuquerque Center
Sun 11:27:00 AM 35.1378 -106.8122 195° South 293 337 8,300 -871 Descending Albuquerque Center
Sun 11:28:02 AM 35.0639 -106.8022 174° South 271 312 8,000 -537 Descending Albuquerque Center
Sun 11:29:03 AM 35.0450 -106.7392 110° East 229 264 7,200 -912 Descending Albuquerque Center
Sun 11:30:07 AM 35.0431 -106.6625 92° East 179 206 6,100 -919 Descending Albuquerque Center
Sun 11:31:07 AM 35.0442 -106.6114 88° East 177 204 5,300 -800 Descending Albuquerque Center
Sun 11:33:00 AM 35.0402 -106.6092 90° East  Level Estimated

Login

Don't have an account? Register now (free) for customized features, flight alerts, and more!